Time;durP1;ratioP1;P1;durP2;ratioP2;P2;SDS_P1;SDS_P2;PMS_P1;PMS_P2;Temp;Humidity;BMP_temperature;BMP_pressure;BME280_temperature;BME280_humidity;BME280_pressure;Samples;Min_cycle;Max_cycle;Signal;HPM_P1;HPM_P2
2023/11/24 00:01:38;;;;;;;40.03;14.48;;;1.90;99.90;;;;;;4787741;29;22220;-75
2023/11/24 00:04:07;;;;;;;42.40;14.18;;;1.90;99.90;;;;;;4788038;29;20058;-74
2023/11/24 00:06:36;;;;;;;39.10;13.13;;;1.90;99.90;;;;;;4786143;29;20072;-74
2023/11/24 00:09:04;;;;;;;30.75;11.85;;;1.90;99.90;;;;;;4798048;29;20050;-74
2023/11/24 00:11:34;;;;;;;42.75;13.57;;;1.80;99.90;;;;;;4798161;29;20206;-75
2023/11/24 00:14:03;;;;;;;33.65;12.10;;;1.80;99.90;;;;;;4783622;29;22560;-74
2023/11/24 00:16:31;;;;;;;32.78;11.32;;;1.80;99.90;;;;;;4789663;29;20054;-77
2023/11/24 00:19:00;;;;;;;40.65;12.73;;;1.80;99.90;;;;;;4791562;29;20050;-77
2023/11/24 00:21:28;;;;;;;39.92;13.13;;;1.80;99.90;;;;;;4780033;29;20054;-77
2023/11/24 00:23:57;;;;;;;36.15;13.20;;;1.80;99.90;;;;;;4769084;29;20089;-77
2023/11/24 00:26:26;;;;;;;38.67;13.13;;;1.80;99.90;;;;;;4787266;29;20054;-80
2023/11/24 00:29:02;;;;;;;41.05;14.18;;;1.80;99.90;;;;;;4795256;29;20050;-77
2023/11/24 00:31:31;;;;;;;33.25;12.35;;;1.60;99.90;;;;;;4784558;29;20247;-76
2023/11/24 00:34:00;;;;;;;38.20;13.43;;;1.70;99.90;;;;;;4795743;29;20062;-78
2023/11/24 00:36:29;;;;;;;33.88;14.13;;;1.70;99.90;;;;;;4777150;29;20069;-77
2023/11/24 00:38:58;;;;;;;38.58;13.15;;;1.60;99.90;;;;;;4766931;29;22460;-77
2023/11/24 00:41:27;;;;;;;38.40;12.00;;;1.60;99.90;;;;;;4809476;29;20046;-77
2023/11/24 00:43:56;;;;;;;41.42;14.38;;;1.70;99.90;;;;;;4778029;29;20069;-77
2023/11/24 00:46:26;;;;;;;44.40;14.90;;;1.60;99.90;;;;;;4771590;29;20138;-77
2023/11/24 00:48:56;;;;;;;40.55;13.82;;;1.60;99.90;;;;;;4767894;29;20824;-77
2023/11/24 00:51:25;;;;;;;39.90;13.50;;;1.60;99.90;;;;;;4765826;29;20139;-76
2023/11/24 00:53:54;;;;;;;36.53;13.25;;;1.60;99.90;;;;;;4782381;29;20067;-77
2023/11/24 00:56:23;;;;;;;36.55;13.70;;;1.60;99.90;;;;;;4790590;29;20066;-77
2023/11/24 00:58:52;;;;;;;40.13;12.90;;;1.70;99.90;;;;;;4769321;29;20083;-77
2023/11/24 01:01:20;;;;;;;40.80;13.73;;;1.60;99.90;;;;;;4769676;29;20283;-77
2023/11/24 01:03:51;;;;;;;39.95;12.82;;;1.60;99.90;;;;;;4783135;29;20050;-77
2023/11/24 01:06:19;;;;;;;41.20;13.93;;;1.70;99.90;;;;;;4769697;29;20062;-77
2023/11/24 01:08:48;;;;;;;42.65;13.07;;;1.60;99.90;;;;;;4784997;29;20050;-77
2023/11/24 01:11:18;;;;;;;39.60;13.13;;;1.60;99.90;;;;;;4782228;29;20070;-77
2023/11/24 01:13:46;;;;;;;34.53;11.82;;;1.60;99.90;;;;;;4771075;29;20059;-78
2023/11/24 01:16:14;;;;;;;43.35;14.15;;;1.60;99.90;;;;;;4789941;29;20197;-77
2023/11/24 01:18:44;;;;;;;37.67;14.13;;;1.60;99.90;;;;;;4766345;29;20066;-77
2023/11/24 01:21:16;;;;;;;40.20;15.05;;;1.60;99.90;;;;;;4779314;29;20074;-77
2023/11/24 01:23:45;;;;;;;41.67;14.30;;;1.60;99.90;;;;;;4790646;29;20067;-77
2023/11/24 01:26:15;;;;;;;39.15;13.05;;;1.60;99.90;;;;;;4772059;29;20047;-74
2023/11/24 01:28:44;;;;;;;46.13;15.52;;;1.60;99.90;;;;;;4770064;29;20059;-74
2023/11/24 01:31:12;;;;;;;42.13;14.35;;;1.50;99.90;;;;;;4773856;29;20058;-74
2023/11/24 01:33:41;;;;;;;42.95;15.95;;;1.60;99.90;;;;;;4772814;29;20063;-74
2023/11/24 01:36:09;;;;;;;51.88;14.70;;;1.60;99.90;;;;;;4773211;29;21012;-74
2023/11/24 01:38:39;;;;;;;48.17;16.33;;;1.60;99.90;;;;;;4772480;29;20067;-74
2023/11/24 01:41:08;;;;;;;41.88;15.07;;;1.60;99.90;;;;;;4776212;29;20151;-74
2023/11/24 01:43:37;;;;;;;43.80;15.48;;;1.60;99.90;;;;;;4786901;29;20175;-74
2023/11/24 01:46:06;;;;;;;46.97;15.23;;;1.60;99.90;;;;;;4785422;29;20126;-74
2023/11/24 01:48:34;;;;;;;40.50;14.50;;;1.60;99.90;;;;;;4802496;29;20058;-74
2023/11/24 01:51:06;;;;;;;43.03;14.65;;;1.60;99.90;;;;;;4798322;29;20070;-74
2023/11/24 01:53:36;;;;;;;38.72;14.27;;;1.60;99.90;;;;;;4789569;29;20054;-74
2023/11/24 01:56:06;;;;;;;51.45;16.73;;;1.60;99.90;;;;;;4772137;29;20054;-75
2023/11/24 01:58:35;;;;;;;47.75;15.48;;;1.60;99.90;;;;;;4775023;29;22806;-74
2023/11/24 02:01:03;;;;;;;47.10;14.32;;;1.50;99.90;;;;;;4789209;29;20065;-74
2023/11/24 02:03:32;;;;;;;43.72;16.13;;;1.60;99.90;;;;;;4774543;29;20106;-74
2023/11/24 02:06:01;;;;;;;42.55;14.32;;;1.60;99.90;;;;;;4790512;29;20055;-74
2023/11/24 02:08:30;;;;;;;41.88;13.23;;;1.60;99.90;;;;;;4789699;29;20066;-74
2023/11/24 02:10:58;;;;;;;43.88;14.35;;;1.60;99.90;;;;;;4789305;29;20838;-74
2023/11/24 02:13:28;;;;;;;45.08;15.02;;;1.60;99.90;;;;;;4767350;29;20054;-74
2023/11/24 02:15:56;;;;;;;42.92;14.10;;;1.70;99.90;;;;;;4788364;29;20066;-75
2023/11/24 02:18:25;;;;;;;38.38;13.30;;;1.70;99.90;;;;;;4781068;29;20063;-74
2023/11/24 02:20:53;;;;;;;47.75;15.93;;;1.70;99.90;;;;;;4790948;29;20179;-74
2023/11/24 02:23:23;;;;;;;43.97;16.15;;;1.70;99.90;;;;;;4798426;29;20799;-74
2023/11/24 02:25:52;;;;;;;42.38;14.27;;;1.70;99.90;;;;;;4772974;29;20106;-75
2023/11/24 02:28:21;;;;;;;44.25;14.82;;;1.70;99.90;;;;;;4776547;29;20848;-74
2023/11/24 02:30:49;;;;;;;40.72;14.60;;;1.70;99.90;;;;;;4789250;29;22634;-74
2023/11/24 02:33:19;;;;;;;46.03;14.93;;;1.70;99.90;;;;;;4789452;29;20066;-75
2023/11/24 02:35:48;;;;;;;47.70;16.35;;;1.70;99.90;;;;;;4774678;29;20058;-77
2023/11/24 02:38:16;;;;;;;49.63;17.67;;;1.80;99.90;;;;;;4789934;29;20121;-75
2023/11/24 02:40:48;;;;;;;52.47;17.90;;;1.80;99.90;;;;;;4808430;29;20059;-75
2023/11/24 02:43:19;;;;;;;48.83;16.40;;;1.80;99.90;;;;;;4761904;29;1289366;-76
2023/11/24 02:45:48;;;;;;;53.17;16.75;;;1.80;99.90;;;;;;4792561;29;20078;-77
2023/11/24 02:48:17;;;;;;;49.92;16.85;;;1.80;99.90;;;;;;4795005;29;22231;-76
2023/11/24 02:50:45;;;;;;;51.42;17.00;;;1.80;99.90;;;;;;4783977;29;20050;-77
2023/11/24 02:53:17;;;;;;;48.60;14.18;;;1.80;99.90;;;;;;4792288;29;20058;-74
2023/11/24 02:55:47;;;;;;;44.47;16.33;;;1.80;99.90;;;;;;4791854;29;20732;-78
2023/11/24 02:58:15;;;;;;;54.17;18.25;;;1.80;99.90;;;;;;4781855;29;20046;-75
2023/11/24 03:00:44;;;;;;;53.53;16.73;;;2.00;99.90;;;;;;4792252;29;20059;-75
2023/11/24 03:03:12;;;;;;;46.30;16.92;;;1.90;99.90;;;;;;4775046;29;20120;-77
2023/11/24 03:05:40;;;;;;;45.97;16.08;;;1.80;99.90;;;;;;4796744;29;20150;-77
2023/11/24 03:08:11;;;;;;;54.13;17.85;;;1.90;99.90;;;;;;4781797;29;20227;-76
2023/11/24 03:10:40;;;;;;;52.33;17.90;;;1.80;99.90;;;;;;4807044;29;20049;-74
2023/11/24 03:13:11;;;;;;;48.15;17.02;;;3.80;99.90;;;;;;4803000;29;20120;-77
2023/11/24 03:15:40;;;;;;;46.72;16.23;;;1.90;99.90;;;;;;4791345;29;20059;-75
2023/11/24 03:18:09;;;;;;;55.10;18.88;;;1.90;99.90;;;;;;4772364;29;20062;-76
2023/11/24 03:20:37;;;;;;;48.08;16.67;;;2.20;99.90;;;;;;4781591;29;20765;-77
2023/11/24 03:23:06;;;;;;;44.58;15.63;;;2.00;99.90;;;;;;4797407;29;22020;-74
2023/11/24 03:25:35;;;;;;;57.17;18.58;;;2.00;99.90;;;;;;4816996;29;20061;-74
2023/11/24 03:28:04;;;;;;;56.30;18.13;;;2.00;99.90;;;;;;4818270;29;20051;-75
2023/11/24 03:30:35;;;;;;;42.70;14.75;;;2.00;99.90;;;;;;4800270;29;20050;-76
2023/11/24 03:33:04;;;;;;;45.90;17.15;;;2.00;99.90;;;;;;4796087;29;20062;-75
2023/11/24 03:35:34;;;;;;;48.67;16.23;;;2.00;99.90;;;;;;4810671;29;20055;-76
2023/11/24 03:38:03;;;;;;;43.83;15.75;;;2.10;99.90;;;;;;4820350;29;20050;-77
2023/11/24 03:40:32;;;;;;;49.67;16.98;;;2.20;99.90;;;;;;4806299;29;20046;-77
2023/11/24 03:43:02;;;;;;;48.65;16.42;;;2.20;99.90;;;;;;4799210;29;20159;-78
2023/11/24 03:45:31;;;;;;;50.92;17.92;;;2.10;99.90;;;;;;4789102;29;20207;-78
2023/11/24 03:48:02;;;;;;;51.08;17.88;;;2.10;99.90;;;;;;4786229;29;20176;-74
2023/11/24 03:50:31;;;;;;;52.58;17.20;;;2.10;99.90;;;;;;4755007;29;20873;-74
2023/11/24 03:52:59;;;;;;;47.45;15.88;;;2.20;99.90;;;;;;4763426;29;20054;-74
2023/11/24 03:55:28;;;;;;;49.45;16.30;;;2.20;99.90;;;;;;4778654;29;20119;-73
2023/11/24 03:57:56;;;;;;;46.35;16.67;;;2.20;99.90;;;;;;4777010;29;20106;-74
2023/11/24 04:00:25;;;;;;;45.92;15.80;;;2.30;99.90;;;;;;4777390;29;20062;-74
2023/11/24 04:02:53;;;;;;;46.78;15.45;;;2.20;99.90;;;;;;4772890;29;20054;-74
2023/11/24 04:05:23;;;;;;;49.40;16.85;;;2.20;99.90;;;;;;4749789;29;20149;-74
2023/11/24 04:07:52;;;;;;;47.97;16.05;;;2.20;99.90;;;;;;4783548;29;20062;-75
2023/11/24 04:10:20;;;;;;;41.85;15.95;;;2.30;99.90;;;;;;4772491;29;20687;-75
2023/11/24 04:12:49;;;;;;;54.47;18.30;;;2.30;99.90;;;;;;4778780;29;20512;-74
2023/11/24 04:15:18;;;;;;;51.38;16.70;;;2.30;99.90;;;;;;4771756;29;20161;-74
2023/11/24 04:17:46;;;;;;;52.42;18.05;;;2.20;99.90;;;;;;4771958;29;20050;-74
2023/11/24 04:20:15;;;;;;;47.70;16.83;;;2.20;99.90;;;;;;4752010;29;20194;-74
2023/11/24 04:22:45;;;;;;;45.35;16.42;;;2.30;99.90;;;;;;4771048;29;20062;-74
2023/11/24 04:25:14;;;;;;;52.80;17.40;;;2.30;99.90;;;;;;4747363;29;20548;-74
2023/11/24 04:27:43;;;;;;;50.63;16.05;;;2.30;99.90;;;;;;4785562;29;20058;-74
2023/11/24 04:30:12;;;;;;;54.33;19.13;;;2.30;99.90;;;;;;4756319;29;20054;-74
2023/11/24 04:32:41;;;;;;;47.88;15.73;;;2.30;99.90;;;;;;4782334;29;20069;-75
2023/11/24 04:35:10;;;;;;;46.05;16.35;;;2.30;99.90;;;;;;4770316;29;20180;-74
2023/11/24 04:37:38;;;;;;;51.10;17.25;;;2.30;99.90;;;;;;4756651;29;20543;-74
2023/11/24 04:40:09;;;;;;;52.97;17.02;;;2.30;99.90;;;;;;4770647;29;20059;-73
2023/11/24 04:42:38;;;;;;;51.85;16.95;;;2.20;99.90;;;;;;4787148;29;20054;-75
2023/11/24 04:45:11;;;;;;;47.15;16.65;;;2.30;99.90;;;;;;4771263;29;20064;-74
2023/11/24 04:47:39;;;;;;;46.97;16.50;;;2.30;99.90;;;;;;4771934;29;20455;-74
2023/11/24 04:50:09;;;;;;;46.90;16.33;;;2.30;99.90;;;;;;4755542;29;20062;-74
2023/11/24 04:52:38;;;;;;;52.53;18.77;;;2.30;99.90;;;;;;4756732;29;20114;-75
2023/11/24 04:55:08;;;;;;;49.72;16.17;;;2.30;99.90;;;;;;4767418;29;20126;-74
2023/11/24 04:57:37;;;;;;;49.13;16.05;;;2.30;99.90;;;;;;4772335;29;20178;-74
2023/11/24 05:00:08;;;;;;;51.22;17.92;;;2.40;99.90;;;;;;4784031;29;20050;-75
2023/11/24 05:02:37;;;;;;;47.33;18.02;;;2.30;99.90;;;;;;4771694;29;20066;-73
2023/11/24 05:05:07;;;;;;;52.92;17.33;;;2.30;99.90;;;;;;4759965;29;20434;-73
2023/11/24 05:07:36;;;;;;;49.88;17.52;;;2.40;99.90;;;;;;4760819;29;20751;-73
2023/11/24 05:10:05;;;;;;;52.10;17.75;;;2.40;99.90;;;;;;4775835;29;20130;-73
2023/11/24 05:12:35;;;;;;;57.08;17.63;;;2.40;99.90;;;;;;4788015;29;20338;-73
2023/11/24 05:15:07;;;;;;;54.83;17.38;;;2.40;99.90;;;;;;4776020;29;20511;-74
2023/11/24 05:17:35;;;;;;;60.88;20.90;;;2.40;99.90;;;;;;4775506;29;20053;-73
2023/11/24 05:20:05;;;;;;;63.38;21.05;;;2.40;99.90;;;;;;4776735;29;20062;-73
2023/11/24 05:22:34;;;;;;;63.08;22.25;;;2.50;99.90;;;;;;4775765;29;20846;-74
2023/11/24 05:25:03;;;;;;;49.40;17.58;;;2.40;99.90;;;;;;4752810;29;22701;-74
2023/11/24 05:27:32;;;;;;;52.28;17.98;;;2.40;99.90;;;;;;4777176;29;22737;-74
2023/11/24 05:30:06;;;;;;;46.78;15.90;;;2.40;99.90;;;;;;4797549;29;20050;-72
2023/11/24 05:32:34;;;;;;;53.47;16.98;;;2.50;99.90;;;;;;4775732;29;20293;-73
2023/11/24 05:35:03;;;;;;;42.78;14.80;;;2.50;99.90;;;;;;4776262;29;20088;-74
2023/11/24 05:37:32;;;;;;;46.63;15.05;;;2.50;99.90;;;;;;4758751;29;20054;-74
2023/11/24 05:40:01;;;;;;;43.22;14.80;;;2.50;99.90;;;;;;4761159;29;20062;-74
2023/11/24 05:42:29;;;;;;;50.05;17.67;;;2.50;99.90;;;;;;4777094;29;20059;-73
2023/11/24 05:45:01;;;;;;;45.58;15.73;;;2.50;99.90;;;;;;4769720;29;22218;-74
2023/11/24 05:47:30;;;;;;;47.55;15.43;;;2.50;99.90;;;;;;4759471;29;20054;-73
2023/11/24 05:49:59;;;;;;;46.00;16.17;;;2.50;99.90;;;;;;4777934;29;20107;-73
2023/11/24 05:52:27;;;;;;;44.83;15.52;;;2.50;99.90;;;;;;4774609;29;20154;-73
2023/11/24 05:54:58;;;;;;;49.97;14.98;;;2.60;99.90;;;;;;4774537;29;20540;-73
2023/11/24 05:57:26;;;;;;;48.25;17.20;;;2.60;99.90;;;;;;4775042;29;20870;-75
2023/11/24 05:59:55;;;;;;;44.40;14.63;;;2.50;99.90;;;;;;4754565;29;20128;-75
2023/11/24 06:02:25;;;;;;;45.67;17.42;;;2.60;99.90;;;;;;4759252;29;20528;-73
2023/11/24 06:04:53;;;;;;;48.63;16.52;;;2.60;99.90;;;;;;4772089;29;20065;-73
2023/11/24 06:07:23;;;;;;;49.78;18.15;;;2.60;99.90;;;;;;4783003;29;20691;-77
2023/11/24 06:09:52;;;;;;;49.97;15.77;;;2.60;99.90;;;;;;4814119;29;22074;-76
2023/11/24 06:12:20;;;;;;;47.83;16.27;;;2.60;99.90;;;;;;4811202;29;20038;-77
2023/11/24 06:14:49;;;;;;;45.13;16.38;;;2.80;99.90;;;;;;4814260;29;20561;-77
2023/11/24 06:17:20;;;;;;;48.10;15.57;;;3.00;99.90;;;;;;4818428;29;20061;-77
2023/11/24 06:19:51;;;;;;;45.97;14.67;;;2.80;99.90;;;;;;4808670;29;20054;-77
2023/11/24 06:22:21;;;;;;;46.45;16.10;;;2.70;99.90;;;;;;4791222;29;20055;-77
2023/11/24 06:24:49;;;;;;;45.80;15.25;;;1.90;99.90;;;;;;4821259;29;20046;-77
2023/11/24 06:27:18;;;;;;;39.10;14.85;;;2.70;99.90;;;;;;4805571;29;20071;-79
2023/11/24 06:29:47;;;;;;;43.45;15.32;;;2.70;99.90;;;;;;4808254;29;20041;-77
2023/11/24 06:32:15;;;;;;;47.03;16.92;;;2.70;99.90;;;;;;4814805;29;20054;-77
2023/11/24 06:34:44;;;;;;;48.15;15.65;;;2.80;99.90;;;;;;4803520;29;20065;-77
2023/11/24 06:37:14;;;;;;;45.90;15.02;;;2.80;99.90;;;;;;4821324;29;20068;-78
2023/11/24 06:39:43;;;;;;;39.15;14.02;;;4.70;99.90;;;;;;4776139;29;20186;-77
2023/11/24 06:42:12;;;;;;;45.88;16.42;;;2.90;99.90;;;;;;4788697;29;20038;-78
2023/11/24 06:44:41;;;;;;;43.53;15.00;;;2.90;99.90;;;;;;4813913;29;20060;-78
2023/11/24 06:47:09;;;;;;;43.97;16.52;;;3.10;99.90;;;;;;4803497;29;20058;-80
2023/11/24 06:49:38;;;;;;;46.10;16.05;;;3.10;99.90;;;;;;4795179;29;20065;-78
2023/11/24 06:52:08;;;;;;;45.22;15.07;;;3.10;99.90;;;;;;4785982;29;20064;-79
2023/11/24 06:54:38;;;;;;;47.10;16.25;;;3.30;99.90;;;;;;4795411;29;20058;-77
2023/11/24 06:57:07;;;;;;;44.25;16.33;;;3.10;99.90;;;;;;4803478;29;20078;-79
2023/11/24 06:59:37;;;;;;;38.58;15.55;;;3.20;99.90;;;;;;4809618;29;20053;-77
2023/11/24 07:02:05;;;;;;;46.67;17.25;;;3.20;99.90;;;;;;4807497;29;20062;-78
2023/11/24 07:04:34;;;;;;;42.50;15.73;;;3.30;99.90;;;;;;4799980;29;20061;-77
2023/11/24 07:07:03;;;;;;;45.35;15.73;;;3.80;99.90;;;;;;4800205;29;20101;-77
2023/11/24 07:09:31;;;;;;;49.10;15.50;;;3.30;99.90;;;;;;4799080;29;20054;-77
2023/11/24 07:12:02;;;;;;;46.45;15.73;;;3.30;99.90;;;;;;4803387;29;20102;-79
2023/11/24 07:14:31;;;;;;;46.22;15.57;;;3.30;99.90;;;;;;4786678;29;20780;-76
2023/11/24 07:16:59;;;;;;;41.70;15.40;;;3.40;99.90;;;;;;4795417;29;20086;-76
2023/11/24 07:19:28;;;;;;;47.22;20.60;;;3.40;99.90;;;;;;4752951;29;20054;-77
2023/11/24 07:21:57;;;;;;;78.68;38.30;;;3.50;99.90;;;;;;4769827;29;20054;-77
2023/11/24 07:24:25;;;;;;;43.05;17.27;;;3.50;99.90;;;;;;4765405;29;22234;-77
2023/11/24 07:26:54;;;;;;;71.68;32.15;;;3.50;99.90;;;;;;4750905;29;20294;-77
2023/11/24 07:29:24;;;;;;;73.68;29.20;;;3.60;99.90;;;;;;4768183;29;20808;-76
2023/11/24 07:31:53;;;;;;;55.85;21.38;;;3.60;99.90;;;;;;4768526;29;20069;-76
2023/11/24 07:34:21;;;;;;;55.40;19.55;;;3.60;99.90;;;;;;4770302;29;20073;-76
2023/11/24 07:36:50;;;;;;;105.93;35.42;;;3.60;99.90;;;;;;4771742;29;20529;-76
2023/11/24 07:39:20;;;;;;;442.92;121.88;;;3.50;99.90;;;;;;4772301;29;20192;-76
2023/11/24 07:41:49;;;;;;;53.10;19.30;;;3.50;99.90;;;;;;4769504;29;20054;-77
2023/11/24 07:44:17;;;;;;;63.03;22.15;;;3.50;99.90;;;;;;4753129;29;20561;-76
2023/11/24 07:46:47;;;;;;;69.57;29.30;;;3.50;99.90;;;;;;4775776;29;20229;-76
2023/11/24 07:49:16;;;;;;;55.30;22.08;;;3.50;99.90;;;;;;4766905;29;20038;-76
2023/11/24 07:51:44;;;;;;;84.25;40.33;;;3.50;99.90;;;;;;4774620;29;20139;-76
2023/11/24 07:54:13;;;;;;;274.25;110.15;;;3.50;99.90;;;;;;4769730;29;20808;-76
2023/11/24 07:56:41;;;;;;;115.15;47.65;;;3.50;99.90;;;;;;4755759;29;20519;-77
2023/11/24 07:59:11;;;;;;;42.03;17.52;;;3.50;99.90;;;;;;4753583;29;20042;-76
2023/11/24 08:01:40;;;;;;;48.60;20.23;;;3.50;99.90;;;;;;4752630;29;20092;-76
2023/11/24 08:04:10;;;;;;;47.92;17.95;;;3.50;99.90;;;;;;4752213;29;20069;-76
2023/11/24 08:06:39;;;;;;;40.17;15.77;;;3.50;99.90;;;;;;4770203;29;20050;-76
2023/11/24 08:09:12;;;;;;;46.95;17.10;;;3.50;99.90;;;;;;4769959;29;20061;-76
2023/11/24 08:11:40;;;;;;;38.33;15.15;;;3.60;99.90;;;;;;4771716;29;20062;-77
2023/11/24 08:14:09;;;;;;;41.65;15.95;;;3.60;99.90;;;;;;4784477;29;20387;-76
2023/11/24 08:16:37;;;;;;;73.93;23.50;;;3.70;99.90;;;;;;4755025;29;20062;-76
2023/11/24 08:19:08;;;;;;;111.07;31.55;;;3.80;99.90;;;;;;4752877;29;20061;-77
2023/11/24 08:21:38;;;;;;;81.93;23.88;;;3.80;99.90;;;;;;4755789;29;22476;-78
2023/11/24 08:24:09;;;;;;;192.05;44.65;;;3.90;99.90;;;;;;4768875;29;20226;-76
2023/11/24 08:26:41;;;;;;;91.20;29.00;;;3.90;99.90;;;;;;4766296;29;20154;-77
2023/11/24 08:29:12;;;;;;;72.65;22.80;;;4.00;99.90;;;;;;4787558;29;20058;-79
2023/11/24 08:31:43;;;;;;;77.95;24.23;;;4.10;99.90;;;;;;4800398;29;20111;-77
2023/11/24 08:34:13;;;;;;;57.05;20.60;;;4.70;99.90;;;;;;4809651;29;20061;-80
2023/11/24 08:36:43;;;;;;;58.65;23.38;;;4.20;99.90;;;;;;4801630;29;20061;-81
2023/11/24 08:39:13;;;;;;;52.45;23.45;;;4.30;99.90;;;;;;4796929;29;22138;-77
2023/11/24 08:41:44;;;;;;;53.05;20.08;;;4.30;99.90;;;;;;4801748;29;20065;-77
2023/11/24 08:44:13;;;;;;;57.10;24.08;;;4.50;99.90;;;;;;4802389;29;20065;-78
2023/11/24 08:46:43;;;;;;;51.08;21.17;;;4.70;99.90;;;;;;4784033;29;20185;-77
2023/11/24 08:49:11;;;;;;;35.95;13.88;;;4.60;99.90;;;;;;4815503;29;20137;-78
2023/11/24 08:51:42;;;;;;;30.40;10.85;;;5.80;99.90;;;;;;4786464;29;20100;-79
2023/11/24 08:54:11;;;;;;;33.28;13.25;;;5.30;99.90;;;;;;4783358;29;20065;-78
2023/11/24 08:56:39;;;;;;;16.25;7.38;;;5.40;99.90;;;;;;4791716;29;20062;-77
2023/11/24 08:59:09;;;;;;;14.75;5.45;;;5.70;99.90;;;;;;4789253;29;20047;-77
2023/11/24 09:01:38;;;;;;;14.88;5.80;;;6.00;99.90;;;;;;4779494;29;20853;-77
2023/11/24 09:04:08;;;;;;;15.00;5.70;;;6.10;99.90;;;;;;4784695;29;21339;-78
2023/11/24 09:06:38;;;;;;;11.05;4.15;;;6.30;99.90;;;;;;4779384;29;20065;-78
2023/11/24 09:09:10;;;;;;;8.35;3.90;;;6.70;99.90;;;;;;4794934;29;20054;-77
2023/11/24 09:11:38;;;;;;;9.38;3.70;;;6.90;99.90;;;;;;4789494;29;20143;-78
2023/11/24 09:14:07;;;;;;;5.68;1.77;;;7.10;99.90;;;;;;4785638;29;20055;-78
2023/11/24 09:16:38;;;;;;;5.25;2.25;;;7.20;99.90;;;;;;4788906;29;20762;-78
2023/11/24 09:19:06;;;;;;;7.13;3.15;;;7.20;99.90;;;;;;4789301;29;20054;-77
2023/11/24 09:21:35;;;;;;;7.93;2.80;;;7.20;99.90;;;;;;4790020;29;20055;-78
2023/11/24 09:24:04;;;;;;;4.75;1.83;;;7.30;99.90;;;;;;4787345;29;20157;-78
2023/11/24 09:26:34;;;;;;;5.90;2.05;;;7.90;99.90;;;;;;4804163;29;20213;-78
2023/11/24 09:29:03;;;;;;;9.18;2.42;;;7.40;99.90;;;;;;4787075;29;20051;-80
2023/11/24 09:31:34;;;;;;;6.68;2.40;;;7.90;99.90;;;;;;4804330;29;20065;-79
2023/11/24 09:34:03;;;;;;;6.93;2.30;;;7.70;99.90;;;;;;4794725;29;22254;-81
2023/11/24 09:36:32;;;;;;;4.25;1.30;;;7.80;99.90;;;;;;4793856;29;20058;-79
2023/11/24 09:39:02;;;;;;;2.80;0.90;;;7.90;99.90;;;;;;4790089;29;20046;-75
2023/11/24 09:41:39;;;;;;;2.47;0.60;;;7.80;99.90;;;;;;4807065;29;20050;-74
2023/11/24 09:44:10;;;;;;;2.45;0.30;;;7.90;99.90;;;;;;4763008;29;20112;-74
2023/11/24 09:46:41;;;;;;;4.43;1.27;;;7.80;99.90;;;;;;4758653;29;20085;-76
2023/11/24 09:49:21;;;;;;;3.58;0.70;;;7.70;99.90;;;;;;4767871;29;20055;-75
2023/11/24 09:51:49;;;;;;;3.92;0.70;;;7.70;99.90;;;;;;4768485;29;20066;-77
2023/11/24 09:54:18;;;;;;;1.80;1.17;;;7.70;99.90;;;;;;4796820;29;20066;-76
2023/11/24 09:56:49;;;;;;;1.23;0.10;;;7.70;99.90;;;;;;4759966;29;20069;-74
2023/11/24 09:59:19;;;;;;;1.65;0.10;;;7.70;98.90;;;;;;4762943;29;20427;-75
2023/11/24 10:01:49;;;;;;;1.30;0.70;;;7.70;97.80;;;;;;4758730;29;20059;-77
2023/11/24 10:04:17;;;;;;;2.47;1.70;;;7.90;98.50;;;;;;4770807;29;20055;-76
2023/11/24 10:06:49;;;;;;;4.55;0.40;;;8.10;98.40;;;;;;4765352;29;20054;-75
2023/11/24 10:09:25;;;;;;;0.73;0.13;;;8.30;96.10;;;;;;4774460;29;20090;-77
2023/11/24 10:11:58;;;;;;;1.08;0.08;;;8.20;96.30;;;;;;4765890;29;20062;-76
2023/11/24 10:14:31;;;;;;;1.48;0.20;;;8.30;95.80;;;;;;4761154;29;20099;-75
2023/11/24 10:17:01;;;;;;;0.52;0.10;;;8.50;94.60;;;;;;4769595;29;20054;-75
2023/11/24 10:19:31;;;;;;;2.13;0.35;;;8.60;93.10;;;;;;4774521;29;20063;-75
2023/11/24 10:21:59;;;;;;;4.97;1.05;;;8.60;92.10;;;;;;4761124;29;20063;-75
2023/11/24 10:24:33;;;;;;;1.50;0.10;;;8.60;92.60;;;;;;4782641;29;20154;-76
2023/11/24 10:27:20;;;;;;;2.88;0.50;;;8.60;92.80;;;;;;4764761;29;20076;-76
2023/11/24 10:29:49;;;;;;;1.58;0.25;;;8.60;92.20;;;;;;4786195;29;20073;-76
2023/11/24 10:32:19;;;;;;;2.88;0.10;;;8.50;92.80;;;;;;4778111;29;20090;-76
2023/11/24 10:34:48;;;;;;;0.77;0.00;;;8.40;91.80;;;;;;4773586;29;20058;-75
2023/11/24 10:37:24;;;;;;;4.35;0.30;;;8.20;92.20;;;;;;4778590;29;20050;-75
2023/11/24 10:39:58;;;;;;;1.27;0.10;;;8.10;92.60;;;;;;4776143;29;20058;-75
2023/11/24 10:42:34;;;;;;;2.53;0.10;;;8.00;93.20;;;;;;4752466;29;20428;-77
2023/11/24 10:45:07;;;;;;;0.80;0.10;;;7.90;94.10;;;;;;4789834;29;20515;-76
2023/11/24 10:47:43;;;;;;;3.13;0.20;;;7.80;94.80;;;;;;4767030;29;20066;-75
2023/11/24 10:50:14;;;;;;;5.75;2.10;;;7.60;94.70;;;;;;4777040;29;20055;-76
2023/11/24 10:52:49;;;;;;;9.05;4.07;;;7.70;94.80;;;;;;4757804;29;20060;-75
2023/11/24 10:55:18;;;;;;;15.38;6.93;;;7.60;94.90;;;;;;4773445;29;20806;-76
2023/11/24 10:57:49;;;;;;;4.38;1.20;;;7.60;94.70;;;;;;4774898;29;20050;-76
2023/11/24 11:00:21;;;;;;;8.77;3.17;;;7.60;95.10;;;;;;4798584;29;20051;-75
2023/11/24 11:02:51;;;;;;;10.32;2.55;;;7.60;94.70;;;;;;4776735;29;20105;-75
2023/11/24 11:05:27;;;;;;;4.32;1.02;;;7.80;94.40;;;;;;4782317;29;20062;-76
2023/11/24 11:08:17;;;;;;;3.75;0.38;;;8.20;94.40;;;;;;4781528;29;20079;-75
2023/11/24 11:10:57;;;;;;;3.70;0.50;;;8.40;93.70;;;;;;4746260;29;21151;-76
2023/11/24 11:13:35;;;;;;;1.23;0.20;;;8.30;94.10;;;;;;4774991;29;20499;-76
2023/11/24 11:16:04;;;;;;;0.90;0.03;;;8.20;93.70;;;;;;4798224;29;20115;-76
2023/11/24 11:18:34;;;;;;;1.70;0.40;;;8.10;93.80;;;;;;4820605;29;20078;-74
2023/11/24 11:21:11;;;;;;;2.10;0.30;;;8.00;93.80;;;;;;4766654;29;22936;-76
2023/11/24 11:23:41;;;;;;;3.45;1.20;;;8.10;92.60;;;;;;4766466;29;20118;-74
2023/11/24 11:26:10;;;;;;;2.65;0.43;;;8.00;93.10;;;;;;4782719;29;20066;-75
2023/11/24 11:28:42;;;;;;;1.08;0.20;;;8.00;93.20;;;;;;4762172;29;20541;-76
2023/11/24 11:31:32;;;;;;;1.33;0.10;;;7.90;92.80;;;;;;4793104;29;20141;-76
2023/11/24 11:34:16;;;;;;;2.47;0.20;;;8.00;91.90;;;;;;4774517;29;20058;-73
2023/11/24 11:36:54;;;;;;;5.65;1.00;;;7.90;91.80;;;;;;4778031;29;20058;-75
2023/11/24 11:39:27;;;;;;;2.25;0.60;;;7.80;92.20;;;;;;4758829;29;20087;-75
2023/11/24 11:42:02;;;;;;;8.35;4.47;;;7.70;92.50;;;;;;4785113;29;20106;-75
2023/11/24 11:44:39;;;;;;;12.73;6.93;;;7.70;93.10;;;;;;4777454;29;20074;-76
2023/11/24 11:47:20;;;;;;;2.55;0.55;;;7.60;93.90;;;;;;4773879;29;20477;-74
2023/11/24 11:49:53;;;;;;;2.72;0.63;;;7.60;94.50;;;;;;4776173;29;20912;-75
2023/11/24 11:52:25;;;;;;;1.45;0.40;;;7.60;94.60;;;;;;4775034;29;20103;-76
2023/11/24 11:54:55;;;;;;;8.05;0.88;;;7.50;95.10;;;;;;4791864;29;20051;-73
2023/11/24 11:57:27;;;;;;;4.15;0.50;;;7.40;95.10;;;;;;4773651;29;22076;-81
2023/11/24 11:59:57;;;;;;;1.65;0.28;;;7.40;95.70;;;;;;4772477;29;20062;-78
2023/11/24 12:02:26;;;;;;;2.67;0.28;;;7.40;95.50;;;;;;4785347;29;20078;-77
2023/11/24 12:04:55;;;;;;;2.28;0.20;;;7.40;95.60;;;;;;4814112;29;20092;-82
2023/11/24 12:07:26;;;;;;;1.02;0.30;;;7.40;95.90;;;;;;4799997;29;20511;-77
2023/11/24 12:09:54;;;;;;;2.28;0.30;;;7.30;95.60;;;;;;4795777;29;20054;-79
2023/11/24 12:12:24;;;;;;;1.98;0.28;;;7.30;95.30;;;;;;4765730;29;20065;-76
2023/11/24 12:14:54;;;;;;;5.07;1.13;;;7.30;95.50;;;;;;4785174;29;20058;-77
2023/11/24 12:17:26;;;;;;;5.07;0.40;;;7.30;95.40;;;;;;4800411;29;20066;-78
2023/11/24 12:19:56;;;;;;;2.33;0.30;;;7.30;95.40;;;;;;4783548;29;20062;-78
2023/11/24 12:22:25;;;;;;;2.45;0.47;;;7.30;95.50;;;;;;4786647;29;20057;-77
2023/11/24 12:24:54;;;;;;;2.03;0.60;;;7.30;95.00;;;;;;4771070;29;22414;-78
2023/11/24 12:27:22;;;;;;;3.00;0.22;;;7.30;94.80;;;;;;4786443;29;20057;-79
2023/11/24 12:29:51;;;;;;;1.65;0.38;;;7.20;94.60;;;;;;4794180;29;20058;-78
2023/11/24 12:32:26;;;;;;;2.65;0.50;;;7.20;94.80;;;;;;4769048;29;22217;-76
2023/11/24 12:34:59;;;;;;;3.15;0.40;;;7.30;94.40;;;;;;4783010;29;20082;-80
2023/11/24 12:37:28;;;;;;;2.90;0.40;;;7.30;94.60;;;;;;4794346;29;20050;-76
2023/11/24 12:39:57;;;;;;;3.88;0.45;;;7.30;94.30;;;;;;4792149;29;20062;-80
2023/11/24 12:42:30;;;;;;;3.50;0.75;;;7.20;94.30;;;;;;4784245;29;20068;-77
2023/11/24 12:44:59;;;;;;;;;;;7.20;93.90;;;;;;4770984;29;20431;-79
2023/11/24 12:47:30;;;;;;;2.58;0.50;;;7.30;93.90;;;;;;4775069;29;19940;-78
2023/11/24 12:50:06;;;;;;;1.73;0.35;;;7.30;93.70;;;;;;4784571;29;20090;-79
2023/11/24 12:52:36;;;;;;;52.78;33.65;;;7.30;93.70;;;;;;4784471;29;20153;-76
2023/11/24 12:55:07;;;;;;;3.35;1.15;;;7.30;93.70;;;;;;4773083;29;20869;-79
2023/11/24 12:57:37;;;;;;;4.97;1.48;;;7.20;94.20;;;;;;4778559;29;20054;-77